createdAt,value
2022-10-10T00:00:12.530Z,101271.88
2022-10-10T00:02:38.982Z,101277.56
2022-10-10T00:05:05.915Z,101270.16
2022-10-10T00:07:32.343Z,101274.59
2022-10-10T00:09:58.803Z,101265.97
2022-10-10T00:12:25.479Z,101259.84
2022-10-10T00:14:52.136Z,101254.75
2022-10-10T00:17:18.625Z,101251.47
2022-10-10T00:19:45.079Z,101254.09
2022-10-10T00:22:11.562Z,101246.53
2022-10-10T00:24:38.208Z,101243.25
2022-10-10T00:27:04.693Z,101240.31
2022-10-10T00:29:31.209Z,101249.56
2022-10-10T00:31:57.590Z,101238.50
2022-10-10T00:34:24.240Z,101234.00
2022-10-10T00:36:50.836Z,101239.50
2022-10-10T00:39:17.354Z,101230.44
2022-10-10T00:41:43.756Z,101234.72
2022-10-10T00:44:12.822Z,101232.25
2022-10-10T00:46:39.992Z,101222.91
2022-10-10T00:49:14.430Z,101228.66
2022-10-10T00:51:42.286Z,101225.84
2022-10-10T00:54:11.210Z,101223.06
2022-10-10T00:56:46.481Z,101219.53
2022-10-10T00:59:14.690Z,101220.34
2022-10-10T01:01:41.621Z,101227.00
2022-10-10T01:04:45.461Z,101213.38
2022-10-10T01:07:21.944Z,101220.25
2022-10-10T01:09:52.358Z,101213.06
2022-10-10T01:12:25.885Z,101210.00
2022-10-10T01:14:52.595Z,101214.03
2022-10-10T01:17:28.840Z,101219.84
2022-10-10T01:20:13.555Z,101206.94
2022-10-10T01:23:17.667Z,101212.41
2022-10-10T01:26:12.412Z,101208.44
2022-10-10T01:28:48.032Z,101202.38
2022-10-10T01:31:17.322Z,101206.03
2022-10-10T01:33:49.764Z,101202.66
2022-10-10T01:36:43.088Z,101193.63
2022-10-10T01:39:21.161Z,101190.72
2022-10-10T01:41:56.516Z,101181.69
2022-10-10T01:44:22.989Z,101184.63
2022-10-10T01:46:49.445Z,101180.28
2022-10-10T01:49:16.472Z,101172.88
2022-10-10T01:52:02.293Z,101181.00
2022-10-10T01:54:40.938Z,101185.72
2022-10-10T01:57:39.763Z,101181.25
2022-10-10T02:00:15.406Z,101179.50
2022-10-10T02:02:52.343Z,101172.84
2022-10-10T02:05:43.954Z,101174.34
2022-10-10T02:08:16.019Z,101178.38
2022-10-10T02:10:47.288Z,101176.72
2022-10-10T02:13:16.574Z,101171.22
2022-10-10T02:15:47.788Z,101169.53
2022-10-10T02:18:18.422Z,101171.56
2022-10-10T02:20:45.815Z,101163.09
2022-10-10T02:23:16.544Z,101158.97
2022-10-10T02:25:47.533Z,101148.19
2022-10-10T02:28:25.946Z,101151.28
2022-10-10T02:30:57.655Z,101151.41
2022-10-10T02:33:31.900Z,101154.31
2022-10-10T02:36:00.237Z,101151.63
2022-10-10T02:38:30.528Z,101151.50
2022-10-10T02:40:58.864Z,101154.69
2022-10-10T02:43:25.846Z,101151.13
2022-10-10T02:45:52.293Z,101155.38
2022-10-10T02:48:18.863Z,101151.63
2022-10-10T02:50:45.480Z,101151.22
2022-10-10T02:53:11.951Z,101141.72
2022-10-10T02:55:38.642Z,101146.66
2022-10-10T02:58:05.553Z,101145.72
2022-10-10T03:00:32.027Z,101143.25
2022-10-10T03:02:58.493Z,101134.81
2022-10-10T03:05:24.926Z,101143.13
2022-10-10T03:07:51.349Z,101145.72
2022-10-10T03:10:17.907Z,101140.19
2022-10-10T03:12:44.416Z,101134.56
2022-10-10T03:15:12.118Z,101127.53
2022-10-10T03:17:39.574Z,101132.56
2022-10-10T03:20:07.128Z,101128.25
2022-10-10T03:22:33.673Z,101123.06
2022-10-10T03:25:00.126Z,101116.59
2022-10-10T03:27:27.046Z,101114.50
2022-10-10T03:29:53.834Z,101116.25
2022-10-10T03:32:20.312Z,101112.84
2022-10-10T03:34:46.781Z,101113.66
2022-10-10T03:37:13.248Z,101118.25
2022-10-10T03:39:39.892Z,101106.03
2022-10-10T03:42:06.699Z,101102.75
2022-10-10T03:44:33.337Z,101101.50
2022-10-10T03:46:59.802Z,101107.34
2022-10-10T03:49:26.606Z,101103.72
2022-10-10T03:51:53.696Z,101106.41
2022-10-10T03:54:20.554Z,101096.09
2022-10-10T03:56:47.594Z,101089.75
2022-10-10T03:59:14.120Z,101089.88
2022-10-10T04:01:40.986Z,101089.03
2022-10-10T04:04:07.545Z,101085.63
2022-10-10T04:06:34.252Z,101074.13
2022-10-10T04:09:00.972Z,101077.66
2022-10-10T04:11:27.495Z,101075.53
2022-10-10T04:13:53.969Z,101085.28
2022-10-10T04:16:20.661Z,101082.47
2022-10-10T04:18:47.139Z,101075.06
2022-10-10T04:21:13.883Z,101066.41
2022-10-10T04:23:41.268Z,101065.72
2022-10-10T04:26:08.361Z,101064.16
2022-10-10T04:28:36.545Z,101071.00
2022-10-10T04:31:05.611Z,101061.09
2022-10-10T04:33:32.073Z,101054.78
2022-10-10T04:35:58.506Z,101056.53
2022-10-10T04:38:25.036Z,101054.78
2022-10-10T04:40:51.817Z,101054.69
2022-10-10T04:43:18.592Z,101056.53
2022-10-10T04:45:45.632Z,101049.97
2022-10-10T04:48:12.283Z,101048.31
2022-10-10T04:50:38.859Z,101042.91
2022-10-10T04:53:05.661Z,101031.53
2022-10-10T04:55:32.087Z,101035.03
2022-10-10T04:57:58.643Z,101038.34
2022-10-10T05:00:25.153Z,101033.19
2022-10-10T05:02:51.761Z,101032.94
2022-10-10T05:05:18.865Z,101030.38
2022-10-10T05:07:45.356Z,101028.59
2022-10-10T05:10:11.790Z,101033.88
2022-10-10T05:12:38.500Z,101033.28
2022-10-10T05:15:05.610Z,101027.28
2022-10-10T05:17:32.116Z,101026.69
2022-10-10T05:19:58.777Z,101017.44
2022-10-10T05:22:25.726Z,101022.59
2022-10-10T05:24:52.289Z,101013.91
2022-10-10T05:27:18.753Z,101018.63
2022-10-10T05:29:45.219Z,101022.63
2022-10-10T05:32:11.641Z,101021.66
2022-10-10T05:34:38.433Z,101022.63
2022-10-10T05:37:05.105Z,101016.50
2022-10-10T05:39:31.881Z,101018.63
2022-10-10T05:41:58.465Z,101019.56
2022-10-10T05:44:25.207Z,101010.09
2022-10-10T05:46:51.748Z,101013.25
2022-10-10T05:49:18.338Z,101024.97
2022-10-10T05:51:44.743Z,101009.03
2022-10-10T05:54:11.461Z,101007.63
2022-10-10T05:56:38.173Z,101018.19
2022-10-10T05:59:04.859Z,101006.34
2022-10-10T06:01:31.689Z,101003.63
2022-10-10T06:03:58.180Z,101018.53
2022-10-10T06:06:26.134Z,101008.81
2022-10-10T06:08:53.450Z,101010.22
2022-10-10T06:11:20.635Z,101007.97
2022-10-10T06:13:49.663Z,101009.53
2022-10-10T06:16:16.564Z,101004.47
2022-10-10T06:18:43.147Z,101011.50
2022-10-10T06:21:11.101Z,101008.22
2022-10-10T06:23:37.901Z,101011.50
2022-10-10T06:26:04.587Z,101022.91
2022-10-10T06:28:31.455Z,101019.47
2022-10-10T06:31:03.259Z,101018.53
2022-10-10T06:33:29.871Z,101026.16
2022-10-10T06:35:56.625Z,101020.97
2022-10-10T06:38:23.805Z,101023.44
2022-10-10T06:40:50.612Z,101013.19
2022-10-10T06:43:17.574Z,101017.97
2022-10-10T06:45:47.126Z,101012.44
2022-10-10T06:48:14.762Z,101015.81
2022-10-10T06:50:41.510Z,101019.09
2022-10-10T06:53:08.305Z,101014.84
2022-10-10T06:55:34.812Z,101023.28
2022-10-10T06:58:01.290Z,101017.16
2022-10-10T07:00:27.791Z,101021.84
2022-10-10T07:02:54.409Z,101025.94
2022-10-10T07:05:21.006Z,101029.81
2022-10-10T07:07:47.471Z,101019.88
2022-10-10T07:10:15.582Z,101024.91
2022-10-10T07:12:44.687Z,101014.25
2022-10-10T07:15:12.055Z,101013.03
2022-10-10T07:17:39.131Z,101007.47
2022-10-10T07:20:07.009Z,101008.97
2022-10-10T07:22:33.789Z,101009.94
2022-10-10T07:25:00.367Z,101015.00
2022-10-10T07:27:28.295Z,101014.91
2022-10-10T07:29:54.863Z,101004.28
2022-10-10T07:32:21.444Z,101004.28
2022-10-10T07:34:47.897Z,101009.56
2022-10-10T07:37:14.461Z,101009.44
2022-10-10T07:39:41.041Z,101008.75
2022-10-10T07:42:07.491Z,100997.44
2022-10-10T07:44:34.926Z,101000.03
2022-10-10T07:47:04.605Z,100999.09
2022-10-10T07:49:31.039Z,101005.00
2022-10-10T07:51:59.039Z,100999.66
2022-10-10T07:54:28.689Z,101008.88
2022-10-10T07:56:55.563Z,100994.34
2022-10-10T07:59:22.746Z,100995.25
2022-10-10T08:01:49.979Z,101002.41
2022-10-10T08:04:17.166Z,100999.22
2022-10-10T08:06:43.756Z,101000.38
2022-10-10T08:09:10.878Z,100998.81
2022-10-10T08:11:37.453Z,101001.03
2022-10-10T08:14:04.269Z,101003.81
2022-10-10T08:16:31.010Z,101002.22
2022-10-10T08:18:57.793Z,101008.47
2022-10-10T08:21:24.653Z,101004.72
2022-10-10T08:23:51.114Z,101007.75
2022-10-10T08:26:19.754Z,101004.75
2022-10-10T08:28:48.432Z,100999.34
2022-10-10T08:31:18.390Z,101003.97
2022-10-10T08:33:46.398Z,100995.28
2022-10-10T08:36:23.542Z,100990.91
2022-10-10T08:38:52.577Z,100983.31
2022-10-10T08:41:51.822Z,100987.91
2022-10-10T08:44:46.387Z,100979.75
2022-10-10T08:47:18.295Z,100978.13
2022-10-10T08:49:55.761Z,100984.09
2022-10-10T08:52:32.226Z,100980.03
2022-10-10T08:55:02.706Z,100970.47
2022-10-10T08:57:34.561Z,100966.91
2022-10-10T09:00:05.868Z,100965.81
2022-10-10T09:02:53.275Z,100967.41
2022-10-10T09:05:47.638Z,100964.63
2022-10-10T09:08:34.739Z,100963.00
2022-10-10T09:11:04.324Z,100964.28
2022-10-10T09:13:37.208Z,100963.72
2022-10-10T09:16:36.825Z,100969.72
2022-10-10T09:19:24.759Z,100968.88
2022-10-10T09:22:02.811Z,100967.47
2022-10-10T09:24:48.513Z,100960.28
2022-10-10T09:27:24.791Z,100967.88
2022-10-10T09:29:58.019Z,100968.13
2022-10-10T09:32:30.868Z,100970.47
2022-10-10T09:35:05.806Z,100966.88
2022-10-10T09:37:47.391Z,100962.13
2022-10-10T09:40:25.912Z,100969.44
2022-10-10T09:42:52.538Z,100969.03
2022-10-10T09:45:23.588Z,100965.06
2022-10-10T09:47:54.011Z,100965.25
2022-10-10T09:50:21.465Z,100957.84
2022-10-10T09:52:48.775Z,100966.06
2022-10-10T09:55:37.177Z,100958.13
2022-10-10T09:58:41.282Z,100961.88
2022-10-10T10:01:17.573Z,100972.41
2022-10-10T10:03:44.802Z,100973.47
2022-10-10T10:06:14.819Z,100967.28
2022-10-10T10:08:42.857Z,100973.16
2022-10-10T10:11:32.728Z,100972.94
2022-10-10T10:14:02.478Z,100968.41
2022-10-10T10:16:39.758Z,100974.25
2022-10-10T10:19:33.656Z,100975.28
2022-10-10T10:22:00.329Z,100977.94
2022-10-10T10:24:36.265Z,100979.34
2022-10-10T10:27:14.835Z,100983.88
2022-10-10T10:29:46.843Z,100984.13
2022-10-10T10:32:22.468Z,100984.53
2022-10-10T10:35:09.571Z,100983.34
2022-10-10T10:37:57.984Z,100977.63
2022-10-10T10:40:44.450Z,100986.56
2022-10-10T10:43:41.679Z,100988.19
2022-10-10T10:46:24.397Z,100979.00
2022-10-10T10:49:29.626Z,100985.59
2022-10-10T10:52:10.057Z,100983.81
2022-10-10T10:54:52.989Z,100990.03
2022-10-10T10:58:28.338Z,100986.88
2022-10-10T11:01:24.005Z,100976.03
2022-10-10T11:05:16.183Z,100976.03
2022-10-10T11:07:18.912Z,100959.47
2022-10-10T11:09:50.867Z,100969.44
2022-10-10T11:12:29.416Z,100955.44
2022-10-10T11:15:10.658Z,100968.94
2022-10-10T11:17:41.205Z,100971.88
2022-10-10T11:20:16.747Z,100959.75
2022-10-10T11:23:22.461Z,100961.59
2022-10-10T11:26:00.344Z,100970.69
2022-10-10T11:28:52.556Z,100964.66
2022-10-10T11:31:31.796Z,100965.97
2022-10-10T11:34:06.921Z,100970.25
2022-10-10T11:36:38.834Z,100966.66
2022-10-10T11:39:15.789Z,100964.22
2022-10-10T11:42:02.779Z,100968.13
2022-10-10T11:44:38.995Z,100965.78
2022-10-10T11:47:15.451Z,100965.81
2022-10-10T11:50:13.335Z,100977.28
2022-10-10T11:52:54.533Z,100974.59
2022-10-10T11:55:36.800Z,100963.25
2022-10-10T11:58:06.572Z,100967.81
2022-10-10T12:00:43.107Z,100958.34
2022-10-10T12:03:10.494Z,100965.94
2022-10-10T12:05:41.172Z,100963.13
2022-10-10T12:08:18.003Z,100963.06
2022-10-10T12:10:53.589Z,100964.25
2022-10-10T12:13:35.111Z,100957.50
2022-10-10T12:16:10.319Z,100951.56
2022-10-10T12:19:13.405Z,100948.50
2022-10-10T12:21:56.501Z,100944.09
2022-10-10T12:24:25.784Z,100943.97
2022-10-10T12:26:54.981Z,100949.19
2022-10-10T12:30:09.253Z,100951.63
2022-10-10T12:32:46.628Z,100960.88
2022-10-10T12:35:33.376Z,100953.84
2022-10-10T12:38:10.037Z,100947.38
2022-10-10T12:41:02.441Z,100953.94
2022-10-10T12:43:45.715Z,100942.63
2022-10-10T12:46:23.567Z,100940.69
2022-10-10T12:49:21.045Z,100934.56
2022-10-10T12:52:11.993Z,100933.59
2022-10-10T12:54:42.693Z,100938.53
2022-10-10T12:57:28.869Z,100932.41
2022-10-10T12:59:59.851Z,100930.88
2022-10-10T13:02:28.489Z,100929.63
2022-10-10T13:04:58.914Z,100932.56
2022-10-10T13:07:26.358Z,100936.78
2022-10-10T13:09:55.041Z,100939.47
2022-10-10T13:12:30.159Z,100937.25
2022-10-10T13:14:57.385Z,100937.75
2022-10-10T13:17:29.638Z,100941.75
2022-10-10T13:19:57.766Z,100935.28
2022-10-10T13:22:25.686Z,100949.16
2022-10-10T13:24:53.053Z,100942.66
2022-10-10T13:27:25.724Z,100941.00
2022-10-10T13:29:54.387Z,100946.63
2022-10-10T13:32:35.921Z,100945.06
2022-10-10T13:35:08.010Z,100944.63
2022-10-10T13:37:35.413Z,100937.84
2022-10-10T13:40:03.177Z,100949.03
2022-10-10T13:42:38.247Z,100961.81
2022-10-10T13:45:30.339Z,100948.72
2022-10-10T13:48:00.175Z,100953.66
2022-10-10T13:50:34.819Z,100956.72
2022-10-10T13:53:29.179Z,100956.84
2022-10-10T13:56:15.974Z,100956.50
2022-10-10T13:58:50.453Z,100957.81
2022-10-10T14:01:32.258Z,100961.34
2022-10-10T14:04:05.766Z,100954.66
2022-10-10T14:06:33.004Z,100962.22
2022-10-10T14:09:17.044Z,100962.22
2022-10-10T14:11:43.750Z,100961.38
2022-10-10T14:14:20.873Z,100958.19
2022-10-10T14:16:58.029Z,100956.72
2022-10-10T14:19:24.646Z,100958.38
2022-10-10T14:21:51.249Z,100961.69
2022-10-10T14:24:17.747Z,100958.97
2022-10-10T14:26:44.162Z,100963.47
2022-10-10T14:29:14.284Z,100967.50
2022-10-10T14:31:41.537Z,100962.53
2022-10-10T14:34:11.635Z,100968.47
2022-10-10T14:36:41.986Z,100969.09
2022-10-10T14:39:13.009Z,100963.19
2022-10-10T14:41:39.473Z,100968.34
2022-10-10T14:44:06.040Z,100964.81
2022-10-10T14:46:32.515Z,100968.00
2022-10-10T14:48:58.958Z,100966.03
2022-10-10T14:51:33.525Z,100966.16
2022-10-10T14:54:10.994Z,100979.16
2022-10-10T14:57:06.529Z,100982.84
2022-10-10T14:59:47.685Z,100984.28
2022-10-10T15:02:15.029Z,100982.34
2022-10-10T15:04:41.494Z,100985.16
2022-10-10T15:07:14.782Z,100981.59
2022-10-10T15:12:37.343Z,100978.41
2022-10-10T15:15:04.873Z,100983.81
2022-10-10T15:17:34.474Z,100980.09
2022-10-10T15:20:02.306Z,100988.25
2022-10-10T15:22:30.232Z,100979.91
2022-10-10T15:24:56.736Z,100988.56
2022-10-10T15:27:23.505Z,100990.16
2022-10-10T15:29:50.043Z,100995.06
2022-10-10T15:32:16.547Z,101006.28
2022-10-10T15:34:42.989Z,101002.72
2022-10-10T15:37:10.441Z,101007.69
2022-10-10T15:39:37.497Z,101016.34
2022-10-10T15:42:13.269Z,101016.13
2022-10-10T15:44:46.237Z,101018.56
2022-10-10T15:47:14.770Z,101021.81
2022-10-10T15:49:41.886Z,101024.56
2022-10-10T15:52:09.817Z,101024.47
2022-10-10T15:54:36.432Z,101018.50
2022-10-10T15:57:03.340Z,101033.91
2022-10-10T15:59:30.279Z,101037.91
2022-10-10T16:01:56.816Z,101040.22
2022-10-10T16:04:23.646Z,101040.09
2022-10-10T16:06:54.561Z,101035.75
2022-10-10T16:09:33.421Z,101042.66
2022-10-10T16:12:00.420Z,101034.88
2022-10-10T16:14:28.339Z,101053.06
2022-10-10T16:16:54.893Z,101043.72
2022-10-10T16:19:21.413Z,101049.19
2022-10-10T16:21:47.943Z,101049.06
2022-10-10T16:24:14.695Z,101057.41
2022-10-10T16:26:41.557Z,101068.75
2022-10-10T16:29:10.239Z,101080.22
2022-10-10T16:31:39.091Z,101086.44
2022-10-10T16:34:07.552Z,101092.22
2022-10-10T16:36:36.585Z,101102.13
2022-10-10T16:39:04.305Z,101110.13
2022-10-10T16:41:47.683Z,101114.63
2022-10-10T16:44:15.809Z,101117.25
2022-10-10T16:46:42.295Z,101129.03
2022-10-10T16:49:11.669Z,101142.34
2022-10-10T16:51:38.192Z,101148.06
2022-10-10T16:54:05.983Z,101160.75
2022-10-10T16:56:32.889Z,101166.06
2022-10-10T16:59:00.092Z,101176.13
2022-10-10T17:01:28.740Z,101179.59
2022-10-10T17:03:57.387Z,101188.00
2022-10-10T17:06:24.013Z,101188.91
2022-10-10T17:08:52.867Z,101192.59
2022-10-10T17:11:21.718Z,101192.38
2022-10-10T17:13:50.020Z,101192.16
2022-10-10T17:16:59.694Z,101189.47
2022-10-10T17:19:08.862Z,101197.66
2022-10-10T17:21:35.999Z,101207.50
2022-10-10T17:24:02.520Z,101224.50
2022-10-10T17:26:29.012Z,101220.63
2022-10-10T17:28:57.447Z,101219.06
2022-10-10T17:31:25.523Z,101216.06
2022-10-10T17:33:54.408Z,101231.41
2022-10-10T17:36:25.157Z,101232.22
2022-10-10T17:38:52.625Z,101236.63
2022-10-10T17:41:20.610Z,101242.31
2022-10-10T17:43:47.724Z,101246.44
2022-10-10T17:49:06.714Z,101259.06
2022-10-10T17:51:34.950Z,101257.94
2022-10-10T17:54:03.143Z,101259.34
2022-10-10T17:56:29.892Z,101267.81
2022-10-10T17:58:56.441Z,101275.75
2022-10-10T18:01:23.343Z,101277.94
2022-10-10T18:03:50.200Z,101275.75
2022-10-10T18:06:20.428Z,101280.38
2022-10-10T18:08:48.473Z,101288.00
2022-10-10T18:11:17.263Z,101288.53
2022-10-10T18:13:44.434Z,101293.75
2022-10-10T18:16:13.588Z,101281.19
2022-10-10T18:18:43.079Z,101288.56
2022-10-10T18:21:13.316Z,101299.47
2022-10-10T18:23:42.238Z,101304.13
2022-10-10T18:26:15.092Z,101306.56
2022-10-10T18:28:42.583Z,101318.31
2022-10-10T18:31:14.105Z,101317.50
2022-10-10T18:33:41.597Z,101319.41
2022-10-10T18:36:09.138Z,101335.50
2022-10-10T18:38:35.980Z,101340.13
2022-10-10T18:41:07.667Z,101345.06
2022-10-10T18:43:34.922Z,101344.53
2022-10-10T18:46:05.246Z,101350.78
2022-10-10T18:48:32.381Z,101354.34
2022-10-10T18:51:21.601Z,101366.06
2022-10-10T18:53:48.541Z,101367.97
2022-10-10T18:56:21.064Z,101372.91
2022-10-10T18:58:47.655Z,101399.63
2022-10-10T19:01:15.444Z,101382.16
2022-10-10T19:03:42.804Z,101386.22
2022-10-10T19:06:12.485Z,101383.22
2022-10-10T19:08:40.121Z,101388.94
2022-10-10T19:11:08.495Z,101395.22
2022-10-10T19:13:35.244Z,101398.78
2022-10-10T19:16:06.317Z,101404.75
2022-10-10T19:18:33.952Z,101406.41
2022-10-10T19:21:02.838Z,101411.00
2022-10-10T19:23:30.887Z,101422.19
2022-10-10T19:26:02.290Z,101428.19
2022-10-10T19:28:28.885Z,101433.91
2022-10-10T19:30:55.706Z,101439.81
2022-10-10T19:33:22.310Z,101452.09
2022-10-10T19:35:52.068Z,101445.78
2022-10-10T19:38:19.247Z,101451.47
2022-10-10T19:40:47.483Z,101458.25
2022-10-10T19:43:15.410Z,101463.41
2022-10-10T19:45:51.270Z,101462.81
2022-10-10T19:48:22.196Z,101464.97
2022-10-10T19:50:49.011Z,101469.03
2022-10-10T19:53:17.754Z,101480.72
2022-10-10T19:55:55.905Z,101480.09
2022-10-10T19:58:22.435Z,101484.22
2022-10-10T20:00:48.917Z,101491.97
2022-10-10T20:03:15.507Z,101489.25
2022-10-10T20:05:41.976Z,101494.03
2022-10-10T20:08:08.672Z,101502.66
2022-10-10T20:10:36.012Z,101509.97
2022-10-10T20:13:02.461Z,101509.13
2022-10-10T20:15:28.985Z,101519.75
2022-10-10T20:17:55.399Z,101529.63
2022-10-10T20:20:21.981Z,101526.06
2022-10-10T20:22:48.558Z,101532.31
2022-10-10T20:25:15.066Z,101538.00
2022-10-10T20:27:41.496Z,101549.03
2022-10-10T20:30:08.662Z,101558.59
2022-10-10T20:32:35.196Z,101551.56
2022-10-10T20:35:02.430Z,101554.31
2022-10-10T20:37:28.961Z,101568.59
2022-10-10T20:39:55.450Z,101563.13
2022-10-10T20:42:22.006Z,101569.09
2022-10-10T20:44:49.493Z,101567.47
2022-10-10T20:47:15.974Z,101569.56
2022-10-10T20:49:42.429Z,101578.00
2022-10-10T20:52:08.980Z,101579.28
2022-10-10T20:54:36.457Z,101579.03
2022-10-10T20:57:02.999Z,101583.31
2022-10-10T20:59:29.762Z,101579.22
2022-10-10T21:01:56.394Z,101583.19
2022-10-10T21:04:24.384Z,101587.44
2022-10-10T21:06:50.827Z,101599.66
2022-10-10T21:09:17.333Z,101592.09
2022-10-10T21:11:46.508Z,101606.69
2022-10-10T21:14:15.370Z,101601.09
2022-10-10T21:16:41.846Z,101594.41
2022-10-10T21:19:10.260Z,101615.50
2022-10-10T21:21:37.518Z,101611.97
2022-10-10T21:24:07.161Z,101619.78
2022-10-10T21:26:33.751Z,101623.19
2022-10-10T21:29:03.266Z,101623.06
2022-10-10T21:31:36.917Z,101621.69
2022-10-10T21:34:05.950Z,101629.34
2022-10-10T21:36:33.686Z,101632.53
2022-10-10T21:39:02.649Z,101637.28
2022-10-10T21:41:29.233Z,101636.81
2022-10-10T21:43:58.168Z,101645.69
2022-10-10T21:46:33.578Z,101644.19
2022-10-10T21:49:07.586Z,101656.44
2022-10-10T21:51:39.189Z,101659.59
2022-10-10T21:54:07.003Z,101657.25
2022-10-10T21:56:34.118Z,101659.72
2022-10-10T21:59:01.617Z,101665.41
2022-10-10T22:01:28.726Z,101665.53
2022-10-10T22:03:56.343Z,101671.13
2022-10-10T22:06:24.854Z,101666.25
2022-10-10T22:08:54.284Z,101680.06
2022-10-10T22:11:23.791Z,101677.50
2022-10-10T22:13:50.905Z,101681.34
2022-10-10T22:16:18.909Z,101681.88
2022-10-10T22:18:45.356Z,101689.72
2022-10-10T22:21:15.108Z,101692.34
2022-10-10T22:23:42.338Z,101693.00
2022-10-10T22:26:11.435Z,101692.75
2022-10-10T22:28:38.500Z,101688.19
2022-10-10T22:31:07.062Z,101696.31
2022-10-10T22:33:34.899Z,101694.66
2022-10-10T22:36:03.040Z,101705.06
2022-10-10T22:38:30.049Z,101709.03
2022-10-10T22:40:56.607Z,101708.00
2022-10-10T22:43:26.793Z,101712.38
2022-10-10T22:45:53.968Z,101701.47
2022-10-10T22:48:20.585Z,101707.97
2022-10-10T22:50:47.119Z,101709.50
2022-10-10T22:53:13.632Z,101712.22
2022-10-10T22:55:40.151Z,101711.63
2022-10-10T22:58:06.999Z,101714.13
2022-10-10T23:00:33.654Z,101711.75
2022-10-10T23:03:00.192Z,101710.81
2022-10-10T23:05:26.912Z,101716.59
2022-10-10T23:07:53.447Z,101717.06
2022-10-10T23:10:19.900Z,101717.75
2022-10-10T23:12:46.420Z,101719.31
2022-10-10T23:15:13.595Z,101722.38
2022-10-10T23:17:40.087Z,101718.72
2022-10-10T23:20:07.548Z,101722.59
2022-10-10T23:22:34.112Z,101728.84
2022-10-10T23:25:00.733Z,101722.00
2022-10-10T23:27:27.221Z,101725.44
2022-10-10T23:29:53.614Z,101723.06
2022-10-10T23:32:20.110Z,101735.09
2022-10-10T23:34:46.486Z,101736.84
2022-10-10T23:37:13.071Z,101736.50
2022-10-10T23:39:42.627Z,101737.91
2022-10-10T23:42:09.099Z,101737.78
2022-10-10T23:44:35.860Z,101743.06
2022-10-10T23:47:04.923Z,101739.31
2022-10-10T23:49:31.393Z,101749.78
2022-10-10T23:51:57.801Z,101755.88
2022-10-10T23:54:24.603Z,101758.00
2022-10-10T23:56:51.054Z,101763.09
2022-10-10T23:59:17.754Z,101755.06
